Time;durP1;ratioP1;P1;durP2;ratioP2;P2;SDS_P1;SDS_P2;PMS_P1;PMS_P2;Temp;Humidity;BMP_temperature;BMP_pressure;BME280_temperature;BME280_humidity;BME280_pressure;Samples;Min_cycle;Max_cycle;Signal;HPM_P1;HPM_P2
2022/04/11 00:00:22;;;;;;;0.13;0.13;;;;;;;5.60;91.82;101200.19;5049642;28;20039;-70
2022/04/11 00:02:47;;;;;;;0.20;0.20;;;;;;;5.63;91.88;101196.91;5060748;28;20044;-70
2022/04/11 00:05:39;;;;;;;0.10;0.10;;;;;;;5.55;91.57;101199.53;5052031;28;20398;-71
2022/04/11 00:08:05;;;;;;;0.10;0.10;;;;;;;5.51;91.40;101196.69;5048202;28;20055;-68
2022/04/11 00:10:30;;;;;;;0.10;0.10;;;;;;;5.54;91.53;101190.72;5065287;28;20058;-68
2022/04/11 00:13:04;;;;;;;0.10;0.10;;;;;;;5.47;92.40;101195.72;5069714;28;20169;-68
2022/04/11 00:15:30;;;;;;;0.10;0.10;;;;;;;5.44;92.13;101191.78;5063985;28;20060;-69
2022/04/11 00:17:55;;;;;;;0.10;0.10;;;;;;;5.40;92.10;101198.06;5064843;28;20452;-68
2022/04/11 00:20:21;;;;;;;0.20;0.20;;;;;;;5.30;92.36;101188.41;5059869;28;20033;-68
2022/04/11 00:22:46;;;;;;;0.13;0.13;;;;;;;5.32;92.82;101199.56;5061830;28;20041;-69
2022/04/11 00:25:11;;;;;;;0.10;0.10;;;;;;;5.29;93.16;101199.38;5051953;28;20123;-69
2022/04/11 00:27:37;;;;;;;0.20;0.20;;;;;;;5.29;92.84;101199.38;5066316;28;20020;-69
2022/04/11 00:30:03;;;;;;;0.20;0.20;;;;;;;5.35;92.86;101196.28;5071106;28;20090;-69
2022/04/11 00:32:28;;;;;;;0.13;0.13;;;;;;;5.33;92.75;101190.47;5048904;28;20068;-69
2022/04/11 00:34:54;;;;;;;0.10;0.10;;;;;;;5.28;92.78;101195.94;5056881;28;20056;-69
2022/04/11 00:37:19;;;;;;;0.20;0.20;;;;;;;5.26;92.97;101190.13;5071603;28;20090;-69
2022/04/11 00:39:45;;;;;;;0.20;0.20;;;;;;;5.25;92.57;101191.22;5072303;28;20028;-69
2022/04/11 00:42:12;;;;;;;0.20;0.20;;;;;;;5.33;92.26;101195.81;5067837;28;20025;-69
2022/04/11 00:44:38;;;;;;;0.10;0.10;;;;;;;5.32;92.35;101185.44;5048097;28;20032;-69
2022/04/11 00:47:03;;;;;;;0.20;0.20;;;;;;;5.28;91.89;101182.56;5052134;28;20580;-68
2022/04/11 00:49:29;;;;;;;0.10;0.10;;;;;;;5.30;92.27;101185.72;5069265;28;20036;-69
2022/04/11 00:51:55;;;;;;;0.20;0.20;;;;;;;5.26;93.03;101189.34;5050145;28;20041;-69
2022/04/11 00:54:20;;;;;;;0.22;0.22;;;;;;;5.23;92.53;101196.06;5047039;28;20040;-69
2022/04/11 00:56:47;;;;;;;0.10;0.10;;;;;;;5.24;93.21;101203.00;5046634;28;20039;-69
2022/04/11 00:59:15;;;;;;;0.10;0.10;;;;;;;5.21;92.61;101192.13;5047813;28;20242;-69
2022/04/11 01:01:41;;;;;;;0.10;0.10;;;;;;;5.18;92.61;101203.41;5069457;28;20040;-69
2022/04/11 01:04:22;;;;;;;0.28;0.28;;;;;;;5.22;92.46;101199.84;5071216;28;20037;-69
2022/04/11 01:06:49;;;;;;;0.10;0.10;;;;;;;5.17;93.04;101199.16;5053967;28;20032;-69
2022/04/11 01:09:14;;;;;;;0.10;0.10;;;;;;;5.15;92.88;101204.03;5068390;28;20024;-69
2022/04/11 01:11:40;;;;;;;0.17;0.17;;;;;;;5.09;93.00;101200.69;5071269;28;20059;-69
2022/04/11 01:14:05;;;;;;;0.13;0.13;;;;;;;5.05;92.93;101196.28;5067779;28;20032;-69
2022/04/11 01:16:31;;;;;;;0.35;0.35;;;;;;;5.04;92.75;101203.47;5052104;28;20115;-69
2022/04/11 01:18:56;;;;;;;0.10;0.10;;;;;;;5.03;92.77;101201.13;5040073;28;20512;-69
2022/04/11 01:21:27;;;;;;;0.15;0.15;;;;;;;4.90;92.75;101197.41;5039168;28;20072;-69
2022/04/11 01:23:52;;;;;;;0.10;0.10;;;;;;;4.85;93.54;101200.22;5052761;28;20068;-69
2022/04/11 01:26:22;;;;;;;0.20;0.20;;;;;;;4.82;94.07;101208.81;5052819;28;20059;-69
2022/04/11 01:28:48;;;;;;;0.10;0.10;;;;;;;4.83;94.07;101204.25;5069454;28;20606;-69
2022/04/11 01:31:16;;;;;;;0.13;0.13;;;;;;;4.82;94.40;101203.47;5057745;28;20043;-69
2022/04/11 01:33:41;;;;;;;0.20;0.20;;;;;;;4.80;94.51;101199.53;5052398;28;20112;-69
2022/04/11 01:36:08;;;;;;;0.20;0.20;;;;;;;4.82;94.54;101200.78;5062586;28;20036;-69
2022/04/11 01:38:33;;;;;;;0.13;0.13;;;;;;;4.82;94.73;101197.38;5068463;28;20028;-69
2022/04/11 01:40:59;;;;;;;0.10;0.10;;;;;;;4.84;94.32;101195.19;5052048;28;20067;-69
2022/04/11 01:43:25;;;;;;;0.15;0.15;;;;;;;4.89;93.97;101200.38;5069037;28;20078;-69
2022/04/11 01:45:52;;;;;;;0.20;0.20;;;;;;;4.80;94.13;101202.97;5048982;28;20041;-69
2022/04/11 01:48:29;;;;;;;0.10;0.10;;;;;;;4.82;93.78;101206.13;5049720;28;20071;-69
2022/04/11 01:50:56;;;;;;;0.10;0.10;;;;;;;4.86;93.86;101207.09;5052029;28;20028;-69
2022/04/11 01:53:21;;;;;;;0.10;0.10;;;;;;;4.81;93.30;101212.56;5046280;28;20028;-69
2022/04/11 01:55:48;;;;;;;0.10;0.10;;;;;;;4.85;93.81;101204.75;5047465;28;20401;-69
2022/04/11 01:58:14;;;;;;;0.10;0.10;;;;;;;4.77;93.69;101203.59;5046508;28;20043;-69
2022/04/11 02:00:41;;;;;;;0.10;0.10;;;;;;;4.69;93.82;101206.97;5045182;28;20039;-69
2022/04/11 02:03:08;;;;;;;0.10;0.10;;;;;;;4.75;93.68;101205.78;5035949;28;20025;-69
2022/04/11 02:05:34;;;;;;;0.10;0.10;;;;;;;4.70;93.96;101208.56;5041721;28;20029;-69
2022/04/11 02:08:00;;;;;;;0.10;0.10;;;;;;;4.76;93.59;101203.91;5054145;28;20137;-69
2022/04/11 02:10:29;;;;;;;0.30;0.30;;;;;;;4.67;93.89;101208.34;5051333;28;20020;-69
2022/04/11 02:12:56;;;;;;;0.20;0.20;;;;;;;4.68;94.34;101204.63;5069656;28;20547;-69
2022/04/11 02:15:22;;;;;;;0.20;0.20;;;;;;;4.68;93.36;101202.75;5054922;28;20178;-69
2022/04/11 02:17:49;;;;;;;0.10;0.10;;;;;;;4.64;93.57;101199.09;5069215;28;20073;-69
2022/04/11 02:20:15;;;;;;;0.10;0.10;;;;;;;4.61;93.66;101201.59;5051681;28;20051;-69
2022/04/11 02:22:49;;;;;;;0.32;0.32;;;;;;;4.58;93.68;101211.75;5032123;28;20437;-69
2022/04/11 02:25:16;;;;;;;0.10;0.10;;;;;;;4.59;94.33;101209.88;5062649;28;20029;-69
2022/04/11 02:27:43;;;;;;;0.20;0.20;;;;;;;4.48;93.76;101211.19;5056009;28;20033;-69
2022/04/11 02:30:10;;;;;;;0.10;0.10;;;;;;;4.49;94.40;101210.88;5031175;28;20394;-69
2022/04/11 02:32:36;;;;;;;0.10;0.10;;;;;;;4.49;94.19;101208.22;5034886;28;20501;-69
2022/04/11 02:35:02;;;;;;;0.10;0.10;;;;;;;4.44;93.50;101211.00;5069241;28;20040;-69
2022/04/11 02:37:28;;;;;;;0.20;0.20;;;;;;;4.48;93.93;101216.53;5067427;28;20054;-69
2022/04/11 02:39:53;;;;;;;0.20;0.20;;;;;;;4.51;93.64;101213.25;5021609;28;20393;-69
2022/04/11 02:42:24;;;;;;;0.20;0.20;;;;;;;4.51;93.50;101206.03;5029554;28;20029;-69
2022/04/11 02:44:53;;;;;;;0.20;0.20;;;;;;;4.48;93.16;101211.97;5047971;28;20032;-69
2022/04/11 02:47:20;;;;;;;0.20;0.20;;;;;;;4.50;93.59;101217.00;5056207;28;20086;-69
2022/04/11 02:49:46;;;;;;;0.17;0.17;;;;;;;4.53;93.76;101219.06;5050433;28;20028;-69
2022/04/11 02:52:32;;;;;;;0.20;0.20;;;;;;;4.58;93.86;101216.31;5064936;28;20120;-69
2022/04/11 02:54:59;;;;;;;0.10;0.10;;;;;;;4.62;93.83;101219.94;5053797;28;20059;-69
2022/04/11 02:57:24;;;;;;;0.20;0.20;;;;;;;4.69;93.73;101211.50;5047370;28;20028;-69
2022/04/11 02:59:51;;;;;;;0.20;0.20;;;;;;;4.69;93.79;101206.19;5056871;28;20040;-69
2022/04/11 03:02:17;;;;;;;0.13;0.13;;;;;;;4.69;93.71;101206.97;5050033;28;20028;-69
2022/04/11 03:04:43;;;;;;;0.20;0.20;;;;;;;4.68;93.73;101200.06;5069805;28;20037;-69
2022/04/11 03:07:16;;;;;;;0.10;0.10;;;;;;;4.68;93.69;101201.94;5051870;28;20150;-68
2022/04/11 03:09:42;;;;;;;0.20;0.20;;;;;;;4.69;93.82;101198.97;5055519;28;20511;-69
2022/04/11 03:12:09;;;;;;;0.20;0.20;;;;;;;4.64;93.60;101198.31;5050297;28;20017;-69
2022/04/11 03:14:34;;;;;;;0.13;0.13;;;;;;;4.63;93.27;101200.19;5040479;28;20020;-69
2022/04/11 03:17:01;;;;;;;0.10;0.10;;;;;;;4.57;93.75;101194.16;5042011;28;21098;-69
2022/04/11 03:19:29;;;;;;;0.10;0.10;;;;;;;4.61;93.30;101202.34;5056502;28;20078;-69
2022/04/11 03:21:55;;;;;;;0.10;0.10;;;;;;;4.52;93.52;101202.28;5072793;28;20402;-69
2022/04/11 03:24:20;;;;;;;0.10;0.10;;;;;;;4.49;93.95;101199.44;5051512;28;20036;-69
2022/04/11 03:26:46;;;;;;;0.10;0.10;;;;;;;4.48;93.24;101195.19;5044237;28;20032;-69
2022/04/11 03:29:19;;;;;;;0.10;0.10;;;;;;;4.43;93.66;101197.97;5045159;28;20029;-69
2022/04/11 03:31:46;;;;;;;0.10;0.10;;;;;;;4.40;93.42;101202.03;5059849;28;20519;-69
2022/04/11 03:34:12;;;;;;;0.40;0.40;;;;;;;4.36;93.10;101193.03;5037754;28;20562;-69
2022/04/11 03:36:38;;;;;;;0.10;0.10;;;;;;;4.30;93.06;101199.56;5035563;28;20398;-69
2022/04/11 03:39:04;;;;;;;0.10;0.10;;;;;;;4.27;93.77;101205.50;5035258;28;20040;-69
2022/04/11 03:41:33;;;;;;;0.17;0.17;;;;;;;4.26;93.82;101208.44;5035132;28;20516;-69
2022/04/11 03:44:10;;;;;;;0.20;0.20;;;;;;;4.27;93.79;101202.06;5035866;28;20037;-69
2022/04/11 03:46:39;;;;;;;0.10;0.10;;;;;;;4.25;93.46;101210.34;5045219;28;20102;-69
2022/04/11 03:49:06;;;;;;;0.10;0.10;;;;;;;4.20;93.26;101215.75;5058886;28;20032;-69
2022/04/11 03:51:33;;;;;;;0.20;0.20;;;;;;;4.17;93.43;101216.38;5049689;28;20048;-70
2022/04/11 03:53:59;;;;;;;0.10;0.10;;;;;;;4.13;93.84;101202.06;5054117;28;20036;-69
2022/04/11 03:56:25;;;;;;;0.10;0.10;;;;;;;4.12;93.64;101202.38;5054524;28;20573;-69
2022/04/11 03:58:50;;;;;;;0.10;0.10;;;;;;;4.08;93.92;101209.38;5052092;28;20032;-69
2022/04/11 04:01:17;;;;;;;0.20;0.20;;;;;;;4.09;93.67;101205.63;5047551;28;20051;-70
2022/04/11 04:03:42;;;;;;;0.10;0.10;;;;;;;4.08;93.54;101212.84;5050587;28;20037;-69
2022/04/11 04:06:11;;;;;;;0.10;0.10;;;;;;;4.07;93.75;101210.44;5052133;28;20079;-69
2022/04/11 04:08:41;;;;;;;0.10;0.10;;;;;;;4.06;93.55;101203.56;5050070;28;20381;-69
2022/04/11 04:11:16;;;;;;;0.10;0.10;;;;;;;3.99;93.34;101211.94;5061370;28;20550;-69
2022/04/11 04:14:04;;;;;;;0.20;0.20;;;;;;;3.96;93.36;101211.75;5050601;28;20031;-69
2022/04/11 04:16:34;;;;;;;0.10;0.10;;;;;;;3.94;93.70;101216.56;5043198;28;20033;-69
2022/04/11 04:19:04;;;;;;;;;;;;;;;3.89;93.44;101219.34;5047422;28;20029;-69
2022/04/11 04:21:30;;;;;;;0.10;0.10;;;;;;;3.83;93.95;101216.00;5054164;28;20363;-69
2022/04/11 04:23:56;;;;;;;0.10;0.10;;;;;;;3.82;93.90;101214.41;5032231;28;20083;-69
2022/04/11 04:26:24;;;;;;;0.10;0.10;;;;;;;3.82;93.98;101210.94;5035123;28;20043;-69
2022/04/11 04:28:50;;;;;;;0.10;0.10;;;;;;;3.81;94.43;101215.50;5033819;28;20040;-69
2022/04/11 04:31:17;;;;;;;0.10;0.10;;;;;;;3.76;94.77;101210.25;5049607;28;20025;-69
2022/04/11 04:33:43;;;;;;;0.10;0.10;;;;;;;3.76;94.48;101212.13;5060874;28;20396;-69
2022/04/11 04:36:11;;;;;;;0.10;0.10;;;;;;;3.77;94.67;101214.50;5048007;28;20075;-69
2022/04/11 04:38:37;;;;;;;0.20;0.20;;;;;;;3.74;94.87;101220.41;5033663;28;20060;-70
2022/04/11 04:41:02;;;;;;;0.20;0.20;;;;;;;3.72;94.88;101216.50;5048579;28;20054;-70
2022/04/11 04:43:28;;;;;;;0.17;0.17;;;;;;;3.75;94.99;101214.03;5052393;28;20396;-69
2022/04/11 04:45:53;;;;;;;0.13;0.13;;;;;;;3.76;95.15;101217.44;5052834;28;20040;-69
2022/04/11 04:48:33;;;;;;;0.20;0.20;;;;;;;3.73;95.23;101220.72;5044231;28;20063;-69
2022/04/11 04:50:59;;;;;;;0.20;0.20;;;;;;;3.77;95.52;101214.50;5037574;28;20068;-69
2022/04/11 04:53:25;;;;;;;0.15;0.15;;;;;;;3.80;95.26;101218.44;5051826;28;20028;-69
2022/04/11 04:55:54;;;;;;;0.20;0.20;;;;;;;3.85;94.85;101218.34;5052726;28;20024;-69
2022/04/11 04:58:20;;;;;;;0.10;0.10;;;;;;;3.81;95.27;101210.19;5051816;28;20094;-70
2022/04/11 05:00:47;;;;;;;0.20;0.20;;;;;;;3.81;95.44;101217.38;5044467;28;20029;-69
2022/04/11 05:03:17;;;;;;;0.10;0.10;;;;;;;3.87;95.46;101216.19;5060780;28;20025;-69
2022/04/11 05:05:42;;;;;;;0.13;0.13;;;;;;;3.88;95.59;101217.75;5047991;28;20035;-69
2022/04/11 05:08:08;;;;;;;0.10;0.10;;;;;;;3.91;95.37;101214.53;5036266;28;20033;-69
2022/04/11 05:10:36;;;;;;;0.10;0.10;;;;;;;3.92;95.61;101211.56;5053780;28;20035;-70
2022/04/11 05:13:03;;;;;;;0.10;0.10;;;;;;;3.94;95.75;101211.25;5051682;28;20140;-69
2022/04/11 05:15:29;;;;;;;0.20;0.20;;;;;;;3.96;95.85;101214.41;5046655;28;20099;-69
2022/04/11 05:18:02;;;;;;;0.10;0.10;;;;;;;3.98;96.00;101215.69;5059069;28;20123;-69
2022/04/11 05:20:29;;;;;;;0.10;0.10;;;;;;;3.96;95.86;101219.72;5059953;28;20024;-70
2022/04/11 05:22:55;;;;;;;0.17;0.17;;;;;;;4.03;96.10;101212.13;5046206;28;20400;-70
2022/04/11 05:25:25;;;;;;;0.20;0.20;;;;;;;4.06;95.77;101216.88;5040986;28;20416;-69
2022/04/11 05:27:52;;;;;;;0.10;0.10;;;;;;;4.11;95.88;101220.22;5060162;28;20033;-69
2022/04/11 05:30:18;;;;;;;0.10;0.10;;;;;;;4.17;95.43;101223.56;5037320;28;20094;-69
2022/04/11 05:32:44;;;;;;;0.20;0.20;;;;;;;4.13;95.66;101225.25;5040094;28;20056;-69
2022/04/11 05:35:10;;;;;;;0.10;0.10;;;;;;;4.16;95.57;101228.09;5046130;28;20085;-70
2022/04/11 05:37:36;;;;;;;0.20;0.20;;;;;;;4.20;95.36;101223.00;5050404;28;20688;-69
2022/04/11 05:40:03;;;;;;;0.15;0.15;;;;;;;4.19;95.76;101229.41;5043033;28;20028;-69
2022/04/11 05:42:29;;;;;;;0.20;0.20;;;;;;;4.24;95.96;101226.66;5048342;28;20497;-69
2022/04/11 05:44:55;;;;;;;0.10;0.10;;;;;;;4.29;95.17;101223.88;5045845;28;20059;-70
2022/04/11 05:47:20;;;;;;;0.40;0.40;;;;;;;4.36;95.55;101227.69;5067885;28;20036;-70
2022/04/11 05:49:52;;;;;;;0.10;0.10;;;;;;;4.43;94.82;101229.97;5048054;28;20082;-69
2022/04/11 05:52:19;;;;;;;0.35;0.35;;;;;;;4.49;95.36;101231.44;5041704;28;20032;-70
2022/04/11 05:54:45;;;;;;;0.10;0.10;;;;;;;4.55;95.04;101236.34;5045337;28;20039;-69
2022/04/11 05:57:11;;;;;;;0.10;0.10;;;;;;;4.66;94.78;101242.25;5042623;28;20063;-70
2022/04/11 05:59:37;;;;;;;0.10;0.10;;;;;;;4.76;94.45;101239.38;5028272;28;20024;-70
2022/04/11 06:02:02;;;;;;;0.10;0.10;;;;;;;4.85;94.15;101234.88;5047787;28;20060;-70
2022/04/11 06:04:28;;;;;;;0.20;0.20;;;;;;;4.93;94.01;101236.84;5050868;28;20111;-71
2022/04/11 06:06:54;;;;;;;0.10;0.10;;;;;;;5.04;93.42;101240.84;5042642;28;20052;-70
2022/04/11 06:09:19;;;;;;;0.20;0.20;;;;;;;5.13;93.21;101240.91;5044061;28;20094;-70
2022/04/11 06:11:45;;;;;;;0.10;0.10;;;;;;;5.24;92.66;101244.91;5050920;28;20539;-70
2022/04/11 06:14:12;;;;;;;0.20;0.20;;;;;;;5.36;92.88;101239.81;5050415;28;20020;-69
2022/04/11 06:16:38;;;;;;;0.10;0.10;;;;;;;5.64;91.92;101238.53;5034945;28;20032;-70
2022/04/11 06:19:03;;;;;;;0.10;0.10;;;;;;;5.82;91.69;101244.75;5062633;28;20040;-69
2022/04/11 06:21:29;;;;;;;0.10;0.10;;;;;;;5.96;91.36;101240.91;5037807;28;20052;-69
2022/04/11 06:23:55;;;;;;;0.10;0.10;;;;;;;6.11;90.68;101237.84;5050795;28;20035;-69
2022/04/11 06:26:23;;;;;;;0.08;0.08;;;;;;;6.27;90.26;101236.28;5049948;28;20056;-70
2022/04/11 06:28:49;;;;;;;0.10;0.10;;;;;;;6.36;88.58;101247.00;5048127;28;20066;-70
2022/04/11 06:31:14;;;;;;;0.10;0.10;;;;;;;6.45;88.25;101252.38;5061243;28;20029;-70
2022/04/11 06:33:43;;;;;;;0.10;0.10;;;;;;;6.54;87.88;101256.66;5055638;28;20024;-70
2022/04/11 06:36:09;;;;;;;0.30;0.30;;;;;;;6.63;87.27;101260.13;5052573;28;20024;-70
2022/04/11 06:38:34;;;;;;;0.10;0.10;;;;;;;6.82;86.56;101257.13;5052847;28;20039;-70
2022/04/11 06:41:02;;;;;;;0.10;0.10;;;;;;;6.93;85.86;101264.53;5057686;28;20123;-70
2022/04/11 06:43:27;;;;;;;0.10;0.10;;;;;;;7.16;86.70;101263.28;5053981;28;20191;-70
2022/04/11 06:46:10;;;;;;;0.10;0.10;;;;;;;7.37;84.88;101265.31;5065214;28;20049;-70
2022/04/11 06:48:35;;;;;;;0.15;0.15;;;;;;;7.68;84.46;101257.84;5037365;28;20512;-70
2022/04/11 06:51:01;;;;;;;0.10;0.10;;;;;;;8.15;82.29;101262.06;5057819;28;20493;-69
2022/04/11 06:53:26;;;;;;;0.10;0.10;;;;;;;8.35;81.53;101260.56;5072989;28;20057;-69
2022/04/11 06:55:51;;;;;;;0.10;0.10;;;;;;;8.52;79.46;101268.50;5067555;28;20040;-70
2022/04/11 06:58:17;;;;;;;0.20;0.20;;;;;;;8.72;77.81;101273.91;5054491;28;20477;-69
2022/04/11 07:00:43;;;;;;;0.10;0.10;;;;;;;8.86;77.16;101279.03;5070375;28;20475;-69
2022/04/11 07:03:09;;;;;;;0.43;0.35;;;;;;;8.81;77.36;101279.22;5071206;28;20056;-69
2022/04/11 07:05:36;;;;;;;0.10;0.10;;;;;;;9.02;76.78;101277.31;5075768;28;20063;-69
2022/04/11 07:08:01;;;;;;;0.10;0.10;;;;;;;9.01;77.10;101276.53;5066214;28;20037;-70
2022/04/11 07:10:26;;;;;;;0.10;0.10;;;;;;;9.12;76.36;101278.84;5074402;28;20036;-69
2022/04/11 07:12:52;;;;;;;0.10;0.10;;;;;;;9.22;76.43;101278.41;5073962;28;20477;-69
2022/04/11 07:15:17;;;;;;;0.10;0.10;;;;;;;9.24;76.81;101270.81;5071094;28;20040;-69
2022/04/11 07:17:44;;;;;;;0.10;0.10;;;;;;;9.69;74.44;101277.00;5069797;28;20047;-70
2022/04/11 07:20:10;;;;;;;0.20;0.20;;;;;;;9.88;73.53;101280.75;5075256;28;20087;-70
2022/04/11 07:22:35;;;;;;;0.10;0.10;;;;;;;9.76;74.95;101282.63;5074128;28;20113;-69
2022/04/11 07:25:01;;;;;;;0.10;0.10;;;;;;;10.13;73.12;101289.66;5071000;28;20070;-69
2022/04/11 07:27:27;;;;;;;0.10;0.10;;;;;;;10.28;73.47;101288.22;5073155;28;20048;-71
2022/04/11 07:29:53;;;;;;;0.40;0.40;;;;;;;10.22;73.94;101289.56;5057671;28;20028;-69
2022/04/11 07:32:19;;;;;;;0.10;0.10;;;;;;;10.47;72.33;101291.88;5073487;28;20008;-69
2022/04/11 07:34:44;;;;;;;0.20;0.20;;;;;;;10.37;73.34;101286.97;5069631;28;20042;-69
2022/04/11 07:37:11;;;;;;;0.30;0.30;;;;;;;10.48;73.59;101281.91;5067534;28;20045;-69
2022/04/11 07:39:37;;;;;;;0.10;0.10;;;;;;;10.65;73.17;101293.22;5074879;28;20123;-69
2022/04/11 07:42:03;;;;;;;0.10;0.10;;;;;;;10.68;72.53;101294.47;5071302;28;20128;-69
2022/04/11 07:44:28;;;;;;;0.10;0.10;;;;;;;10.88;70.80;101288.91;5065166;28;20072;-69
2022/04/11 07:46:54;;;;;;;0.20;0.20;;;;;;;10.81;70.65;101279.84;5065200;28;20043;-69
2022/04/11 07:49:19;;;;;;;0.10;0.10;;;;;;;11.23;70.78;101286.44;5054161;28;20496;-69
2022/04/11 07:51:44;;;;;;;0.10;0.10;;;;;;;11.26;69.94;101291.16;5071502;28;20020;-69
2022/04/11 07:54:10;;;;;;;0.20;0.20;;;;;;;11.65;69.10;101286.81;5068569;28;20044;-69
2022/04/11 07:56:35;;;;;;;0.65;0.65;;;;;;;11.88;68.32;101285.13;5038629;28;20020;-68
2022/04/11 07:59:01;;;;;;;0.10;0.10;;;;;;;11.95;68.38;101296.09;5065859;28;20594;-68
2022/04/11 08:01:28;;;;;;;0.43;0.43;;;;;;;11.90;66.88;101285.56;5065751;28;20032;-68
2022/04/11 08:03:53;;;;;;;0.10;0.10;;;;;;;11.66;68.23;101288.41;5067985;28;20067;-69
2022/04/11 08:06:19;;;;;;;0.20;0.20;;;;;;;11.73;67.27;101283.97;5072027;28;20032;-69
2022/04/11 08:08:46;;;;;;;0.10;0.10;;;;;;;11.88;66.10;101290.53;5071518;28;20040;-69
2022/04/11 08:11:15;;;;;;;0.10;0.10;;;;;;;11.97;67.03;101274.94;5062626;28;20036;-69
2022/04/11 08:13:40;;;;;;;0.10;0.10;;;;;;;12.04;65.82;101277.03;5070329;28;20430;-69
2022/04/11 08:16:06;;;;;;;0.15;0.15;;;;;;;12.52;64.75;101282.03;5063170;28;20043;-68
2022/04/11 08:18:31;;;;;;;0.10;0.10;;;;;;;12.48;63.65;101281.94;5067728;28;20044;-69
2022/04/11 08:20:57;;;;;;;0.88;0.77;;;;;;;12.79;62.25;101291.91;5070393;28;20051;-69
2022/04/11 08:23:23;;;;;;;0.38;0.10;;;;;;;12.93;61.12;101284.06;5058132;28;20447;-69
2022/04/11 08:25:49;;;;;;;0.10;0.10;;;;;;;13.09;59.79;101286.75;5066347;28;20477;-68
2022/04/11 08:28:15;;;;;;;0.00;0.00;;;;;;;13.16;60.18;101287.66;5059373;28;20047;-68
2022/04/11 08:30:40;;;;;;;0.03;0.03;;;;;;;13.21;59.31;101282.00;5065669;28;20102;-68
2022/04/11 08:33:06;;;;;;;0.30;0.30;;;;;;;13.07;60.14;101283.59;5070225;28;20059;-69
2022/04/11 08:35:31;;;;;;;0.00;0.00;;;;;;;13.07;59.67;101291.72;5071945;28;20116;-69
2022/04/11 08:37:57;;;;;;;0.00;0.00;;;;;;;13.34;58.39;101288.00;5062671;28;20488;-69
2022/04/11 08:40:23;;;;;;;0.00;0.00;;;;;;;13.06;57.47;101290.97;5069022;28;20033;-69
2022/04/11 08:42:50;;;;;;;0.43;0.43;;;;;;;13.43;56.31;101286.66;5068048;28;20063;-68
2022/04/11 08:45:21;;;;;;;0.00;0.00;;;;;;;13.32;55.51;101287.59;5071286;28;20133;-69
2022/04/11 08:47:50;;;;;;;0.00;0.00;;;;;;;13.59;56.19;101284.66;5067983;28;20044;-68
2022/04/11 08:50:17;;;;;;;0.00;0.00;;;;;;;13.98;54.73;101276.41;5070813;28;20188;-69
2022/04/11 08:52:43;;;;;;;0.00;0.00;;;;;;;13.73;55.18;101280.63;5067227;28;20028;-69
2022/04/11 08:55:10;;;;;;;0.00;0.00;;;;;;;13.49;53.16;101289.88;5068725;28;20050;-69
2022/04/11 08:57:36;;;;;;;0.00;0.00;;;;;;;13.60;52.52;101282.72;5048496;28;20062;-69
2022/04/11 09:00:09;;;;;;;0.00;0.00;;;;;;;13.65;52.16;101285.13;5058996;28;20043;-69
2022/04/11 09:02:35;;;;;;;0.77;0.77;;;;;;;13.90;52.66;101285.59;5069553;28;20039;-69
2022/04/11 09:05:01;;;;;;;0.10;0.10;;;;;;;13.72;52.06;101287.19;5070670;28;20036;-68
2022/04/11 09:07:26;;;;;;;0.00;0.00;;;;;;;14.23;52.12;101283.78;5062154;28;20061;-68
2022/04/11 09:09:52;;;;;;;0.00;0.00;;;;;;;14.34;52.16;101290.19;5060630;28;20486;-68
2022/04/11 09:12:18;;;;;;;0.10;0.10;;;;;;;14.58;50.81;101290.91;5066481;28;20032;-68
2022/04/11 09:14:51;;;;;;;0.00;0.00;;;;;;;14.22;50.46;101282.25;5069802;28;20095;-69
2022/04/11 09:17:16;;;;;;;0.00;0.00;;;;;;;14.45;51.03;101282.22;5069332;28;20406;-69
2022/04/11 09:19:42;;;;;;;0.00;0.00;;;;;;;14.62;50.09;101281.69;5044706;28;20470;-69
2022/04/11 09:22:07;;;;;;;0.00;0.00;;;;;;;15.13;50.23;101288.19;5064247;28;20029;-68
2022/04/11 09:24:33;;;;;;;0.00;0.00;;;;;;;15.13;48.51;101288.19;5058497;28;20482;-69
2022/04/11 09:26:59;;;;;;;0.10;0.10;;;;;;;15.28;49.41;101291.84;5053745;28;20032;-68
2022/04/11 09:29:26;;;;;;;0.90;0.52;;;;;;;15.06;48.74;101281.91;5059595;28;20531;-69
2022/04/11 09:31:53;;;;;;;0.00;0.00;;;;;;;15.06;48.33;101279.19;5055215;28;20036;-69
2022/04/11 09:34:25;;;;;;;0.85;0.75;;;;;;;14.98;47.58;101281.00;5059800;28;20534;-69
2022/04/11 09:36:56;;;;;;;0.00;0.00;;;;;;;14.89;46.61;101277.78;5062705;28;20040;-68
2022/04/11 09:39:44;;;;;;;0.00;0.00;;;;;;;14.88;46.45;101262.69;5058082;28;20040;-69
2022/04/11 09:42:09;;;;;;;0.22;0.22;;;;;;;15.51;46.59;101270.78;5065246;28;20028;-69
2022/04/11 09:44:35;;;;;;;0.00;0.00;;;;;;;15.59;45.70;101277.06;5044492;28;20032;-69
2022/04/11 09:47:05;;;;;;;0.05;0.05;;;;;;;15.68;45.99;101274.84;5045844;28;20123;-69
2022/04/11 09:49:32;;;;;;;0.00;0.00;;;;;;;16.05;45.99;101281.78;5065425;28;20037;-68
2022/04/11 09:52:12;;;;;;;0.15;0.15;;;;;;;15.85;45.37;101279.66;5054797;28;20028;-68
2022/04/11 09:54:43;;;;;;;0.00;0.00;;;;;;;15.77;44.42;101273.38;5056755;28;20039;-69
2022/04/11 09:57:10;;;;;;;0.00;0.00;;;;;;;15.77;44.36;101272.59;5053174;28;20032;-68
2022/04/11 09:59:37;;;;;;;0.55;0.10;;;;;;;15.70;42.84;101262.44;5048674;28;20521;-69
2022/04/11 10:02:03;;;;;;;0.00;0.00;;;;;;;15.63;43.39;101269.75;5056360;28;20025;-68
2022/04/11 10:04:29;;;;;;;0.60;0.20;;;;;;;15.66;44.28;101271.72;5056803;28;20047;-68
2022/04/11 10:06:55;;;;;;;0.00;0.00;;;;;;;16.15;44.08;101261.28;5058206;28;20028;-68
2022/04/11 10:09:23;;;;;;;0.13;0.13;;;;;;;16.52;43.59;101274.75;5039428;28;20036;-69
2022/04/11 10:11:51;;;;;;;0.10;0.10;;;;;;;16.48;43.49;101263.03;5059025;28;20111;-69
2022/04/11 10:14:23;;;;;;;0.00;0.00;;;;;;;16.53;43.82;101262.72;5039820;28;20047;-69
2022/04/11 10:16:50;;;;;;;0.00;0.00;;;;;;;16.52;43.28;101258.44;5052000;28;20051;-69
2022/04/11 10:19:15;;;;;;;0.00;0.00;;;;;;;16.83;43.62;101255.91;5039027;28;20444;-68
2022/04/11 10:21:43;;;;;;;0.20;0.20;;;;;;;16.90;44.16;101246.97;5040970;28;20025;-69
2022/04/11 10:24:16;;;;;;;0.00;0.00;;;;;;;16.98;43.40;101252.06;5038788;28;20122;-69
2022/04/11 10:26:48;;;;;;;0.00;0.00;;;;;;;16.93;42.91;101249.72;5059506;28;20041;-69
2022/04/11 10:29:32;;;;;;;;;;;;;;;17.23;42.12;101252.13;5060089;28;20149;-69
2022/04/11 10:32:04;;;;;;;0.00;0.00;;;;;;;17.22;41.80;101249.81;5059756;28;19998;-69
2022/04/11 10:35:01;;;;;;;0.00;0.00;;;;;;;17.06;40.27;101248.22;5065638;28;20119;-68
2022/04/11 10:37:39;;;;;;;0.00;0.00;;;;;;;16.95;40.53;101249.34;5057010;28;20058;-69
2022/04/11 10:40:17;;;;;;;0.00;0.00;;;;;;;17.51;41.04;101260.41;5039866;28;20067;-69
2022/04/11 10:43:05;;;;;;;0.00;0.00;;;;;;;17.74;39.71;101258.13;5060592;28;20039;-69
2022/04/11 10:45:40;;;;;;;0.05;0.05;;;;;;;17.83;40.38;101260.44;5064636;28;20029;-69
2022/04/11 10:48:06;;;;;;;0.30;0.30;;;;;;;17.81;40.06;101255.38;5051522;28;20029;-69
2022/04/11 10:50:37;;;;;;;0.00;0.00;;;;;;;17.55;40.20;101247.59;5055558;28;20141;-69
2022/04/11 10:53:07;;;;;;;0.00;0.00;;;;;;;17.38;39.33;101236.63;5058240;28;20035;-69
2022/04/11 10:55:33;;;;;;;0.00;0.00;;;;;;;17.70;40.51;101248.38;5063981;28;20495;-69
2022/04/11 10:58:01;;;;;;;0.00;0.00;;;;;;;17.84;39.63;101249.19;5051089;28;20067;-69
2022/04/11 11:00:28;;;;;;;0.00;0.00;;;;;;;17.72;38.96;101248.75;5065884;28;20067;-69
2022/04/11 11:03:02;;;;;;;0.00;0.00;;;;;;;18.23;39.08;101253.81;5068222;28;20062;-68
2022/04/11 11:05:48;;;;;;;0.10;0.00;;;;;;;18.34;40.16;101251.84;5067509;28;20040;-68
2022/04/11 11:08:14;;;;;;;0.15;0.08;;;;;;;18.40;39.60;101239.38;5059329;28;20029;-69
2022/04/11 11:10:42;;;;;;;0.00;0.00;;;;;;;18.42;38.21;101245.22;5061949;28;20154;-69
2022/04/11 11:13:26;;;;;;;0.00;0.00;;;;;;;18.54;38.70;101240.13;5047292;28;20025;-69
2022/04/11 11:15:54;;;;;;;0.10;0.10;;;;;;;18.55;37.19;101244.44;5069470;28;20056;-69
2022/04/11 11:18:19;;;;;;;0.00;0.00;;;;;;;18.64;38.62;101242.06;5072670;28;20059;-69
2022/04/11 11:20:52;;;;;;;0.00;0.00;;;;;;;18.53;38.61;101235.88;5063153;28;20059;-68
2022/04/11 11:23:31;;;;;;;0.30;0.30;;;;;;;18.70;39.12;101234.25;5068429;28;20556;-69
2022/04/11 11:26:15;;;;;;;0.00;0.00;;;;;;;18.83;38.88;101232.66;5060512;28;20052;-69
2022/04/11 11:28:43;;;;;;;0.00;0.00;;;;;;;18.93;38.96;101235.31;5060746;28;20024;-69
2022/04/11 11:31:10;;;;;;;0.00;0.00;;;;;;;18.81;38.91;101232.28;5040475;28;21065;-68
2022/04/11 11:33:36;;;;;;;0.00;0.00;;;;;;;19.00;36.26;101229.06;5058944;28;20039;-69